Huvudsida
METAR-TAF:

METAR-TAF

Flygplatser :

Milano-Linate flygplats

Milano, Italien

latitud: 45-26N, longitud: 009-17E, höjd: 107 m

Aktuellt väderrapport

Denna rapport gjordes för 33 minuter sedan, klockan 03:20 UTC
Vind 2 kt varierande vindriktning
Temperatur 3°C
Fuktighet 100%
Tryck 1022 hPa
Sikt: 1500 m
dimbankar

METAR: LIML 190320Z VRB02KT 1500 R36/0250D BCFG NSC 03/03 Q1022 NOSIG

Tid: 04:53 (03:53 UTC)

Väderprognos

Denna rapport gjordes för 4 timmar och 53 minuter sedan, klockan 23:00 UTC
Prognos gäller från 19 kl. 00 UTC till 19 kl. 24 UTC
Vind 5 kt varierande vindriktning
Sikt: 6000 m
Spridda moln på en höjd av 2500 ft
Temporärt
från 19 kl. 02 UTC till 19 kl. 08 UTC
Sikt: 2000 m
dimbankar
Blir
från 19 kl. 12 UTC till 19 kl. 15 UTC
Vind 12 kt från väst
Blir
från 19 kl. 20 UTC till 19 kl. 22 UTC
Vind 5 kt varierande vindriktning

TAF: LIML 182300Z 1900/1924 VRB05KT 6000 SCT025 TEMPO 1902/1908 2000 BCFG BECMG 1912/1915 27012KT BECMG 1920/1922 VRB05KT

Aktuella väderrapporter och prognoser från 4000 flygplatser (METAR- och TAF-rapporter).

De tillgängliga stationerna syns som gula och röda prickar på kartan.

För musen över prickarna för att se namnen på stationerna.

Klicka sedan för att få väderrapporter och prognoser.

För att ändra kartan: Klicka på de gröna knapparna med ett svart kors på för att zooma in; den gröna knappen med ett streck på för att zooma ut; eller på de gröna pilarna för angränsande kartor.


METAR-TAF: